createdAt,value
2019-05-25T00:00:30.138Z,0.00
2019-05-25T00:01:30.176Z,0.00
2019-05-25T00:02:30.085Z,0.00
2019-05-25T00:03:30.078Z,0.00
2019-05-25T00:04:30.072Z,0.00
2019-05-25T00:05:30.047Z,0.00
2019-05-25T00:06:30.037Z,0.00
2019-05-25T00:07:30.036Z,0.00
2019-05-25T00:08:30.031Z,0.00
2019-05-25T00:09:30.006Z,0.00
2019-05-25T00:10:30.004Z,0.00
2019-05-25T00:11:29.976Z,0.00
2019-05-25T00:12:30.010Z,0.00
2019-05-25T00:13:29.957Z,0.00
2019-05-25T00:14:29.947Z,0.00
2019-05-25T00:15:29.963Z,0.00
2019-05-25T00:16:29.936Z,0.00
2019-05-25T00:17:29.940Z,0.00
2019-05-25T00:18:29.913Z,0.00
2019-05-25T00:19:29.894Z,0.00
2019-05-25T00:20:29.886Z,0.00
2019-05-25T00:21:29.880Z,0.00
2019-05-25T00:22:29.858Z,0.00
2019-05-25T00:23:29.861Z,0.00
2019-05-25T00:24:29.833Z,0.00
2019-05-25T00:25:29.831Z,0.00
2019-05-25T00:26:29.831Z,0.00
2019-05-25T00:27:29.807Z,0.00
2019-05-25T00:28:29.817Z,0.00
2019-05-25T00:29:29.786Z,0.00
2019-05-25T00:30:29.767Z,0.00
2019-05-25T00:31:29.765Z,0.00
2019-05-25T00:32:29.756Z,0.00
2019-05-25T00:33:30.517Z,0.00
2019-05-25T00:34:29.721Z,0.00
2019-05-25T00:35:29.732Z,0.00
2019-05-25T00:36:29.709Z,0.00
2019-05-25T00:37:29.691Z,0.00
2019-05-25T00:38:29.691Z,0.00
2019-05-25T00:39:29.663Z,0.00
2019-05-25T00:40:29.673Z,0.00
2019-05-25T00:41:29.658Z,0.00
2019-05-25T00:42:29.639Z,0.00
2019-05-25T00:43:29.626Z,0.00
2019-05-25T00:44:29.623Z,0.00
2019-05-25T00:45:29.641Z,0.00
2019-05-25T00:46:29.605Z,0.00
2019-05-25T00:47:29.585Z,0.00
2019-05-25T00:48:29.574Z,0.00
2019-05-25T00:49:29.559Z,0.00
2019-05-25T00:50:29.575Z,0.00
2019-05-25T00:51:29.533Z,0.00
2019-05-25T00:52:29.541Z,0.00
2019-05-25T00:53:29.513Z,0.00
2019-05-25T00:54:29.502Z,0.00
2019-05-25T00:55:29.501Z,0.00
2019-05-25T00:56:29.474Z,0.00
2019-05-25T00:57:29.515Z,0.00
2019-05-25T00:58:29.462Z,0.00
2019-05-25T00:59:29.441Z,0.00
2019-05-25T01:00:29.448Z,0.00
2019-05-25T01:01:29.437Z,0.00
2019-05-25T01:02:29.408Z,0.00
2019-05-25T01:03:29.505Z,0.00
2019-05-25T01:04:29.400Z,0.00
2019-05-25T01:05:29.379Z,0.00
2019-05-25T01:06:29.376Z,0.00
2019-05-25T01:07:29.364Z,0.00
2019-05-25T01:08:29.367Z,0.00
2019-05-25T01:09:29.338Z,0.00
2019-05-25T01:10:29.320Z,0.00
2019-05-25T01:11:29.317Z,0.00
2019-05-25T01:12:29.296Z,0.00
2019-05-25T01:13:29.308Z,0.00
2019-05-25T01:14:29.298Z,0.00
2019-05-25T01:15:29.271Z,0.00
2019-05-25T01:16:29.258Z,0.00
2019-05-25T01:17:29.244Z,0.00
2019-05-25T01:18:29.326Z,0.00
2019-05-25T01:19:29.216Z,0.00
2019-05-25T01:20:29.226Z,0.00
2019-05-25T01:21:29.210Z,0.00
2019-05-25T01:22:29.197Z,0.00
2019-05-25T01:23:29.178Z,0.00
2019-05-25T01:24:43.365Z,0.00
2019-05-25T01:25:30.159Z,0.00
2019-05-25T01:26:29.150Z,0.00
2019-05-25T01:27:29.134Z,0.00
2019-05-25T01:28:29.124Z,0.00
2019-05-25T01:29:29.114Z,0.00
2019-05-25T01:30:29.116Z,0.00
2019-05-25T01:31:29.085Z,0.00
2019-05-25T01:32:29.082Z,0.00
2019-05-25T01:33:29.080Z,0.00
2019-05-25T01:34:29.053Z,0.00
2019-05-25T01:35:29.224Z,0.00
2019-05-25T01:36:29.032Z,0.00
2019-05-25T01:37:29.018Z,0.00
2019-05-25T01:38:29.021Z,0.00
2019-05-25T01:39:29.004Z,0.00
2019-05-25T01:40:29.025Z,0.00
2019-05-25T01:41:28.978Z,0.00
2019-05-25T01:42:28.963Z,0.00
2019-05-25T01:43:28.956Z,0.00
2019-05-25T01:44:28.950Z,0.00
2019-05-25T01:45:28.931Z,0.00
2019-05-25T01:46:28.949Z,0.00
2019-05-25T01:47:28.917Z,0.00
2019-05-25T01:48:28.918Z,0.00
2019-05-25T01:49:28.884Z,0.00
2019-05-25T01:50:28.905Z,0.00
2019-05-25T01:51:28.872Z,0.00
2019-05-25T01:52:28.865Z,0.00
2019-05-25T01:53:28.863Z,0.00
2019-05-25T01:54:28.831Z,0.00
2019-05-25T01:55:28.828Z,0.00
2019-05-25T01:56:28.809Z,0.00
2019-05-25T01:57:28.799Z,0.00
2019-05-25T01:58:28.797Z,0.00
2019-05-25T01:59:28.775Z,0.00
2019-05-25T02:00:28.761Z,0.00
2019-05-25T02:01:28.772Z,0.00
2019-05-25T02:02:28.742Z,0.00
2019-05-25T02:03:29.042Z,0.00
2019-05-25T02:04:28.720Z,0.00
2019-05-25T02:05:28.707Z,0.00
2019-05-25T02:06:28.701Z,0.00
2019-05-25T02:07:28.691Z,0.00
2019-05-25T02:08:28.677Z,0.00
2019-05-25T02:09:28.694Z,0.00
2019-05-25T02:10:28.667Z,0.00
2019-05-25T02:11:28.637Z,0.00
2019-05-25T02:12:28.634Z,0.00
2019-05-25T02:13:28.620Z,4.00
2019-05-25T02:14:28.613Z,4.00
2019-05-25T02:15:28.611Z,4.00
2019-05-25T02:16:28.613Z,0.00
2019-05-25T02:17:28.573Z,0.00
2019-05-25T02:18:28.570Z,4.00
2019-05-25T02:19:28.555Z,4.00
2019-05-25T02:20:28.548Z,4.00
2019-05-25T02:21:28.532Z,4.00
2019-05-25T02:22:28.535Z,8.00
2019-05-25T02:23:28.579Z,4.00
2019-05-25T02:24:28.504Z,8.00
2019-05-25T02:25:28.482Z,4.00
2019-05-25T02:26:28.467Z,8.00
2019-05-25T02:27:28.486Z,8.00
2019-05-25T02:28:28.483Z,12.00
2019-05-25T02:29:28.447Z,12.00
2019-05-25T02:30:28.431Z,12.00
2019-05-25T02:31:28.423Z,16.00
2019-05-25T02:32:28.404Z,16.00
2019-05-25T02:33:28.643Z,20.00
2019-05-25T02:34:28.389Z,24.00
2019-05-25T02:35:28.378Z,24.00
2019-05-25T02:36:28.361Z,28.00
2019-05-25T02:37:28.351Z,32.00
2019-05-25T02:38:28.359Z,36.00
2019-05-25T02:39:28.837Z,40.00
2019-05-25T02:40:28.329Z,44.00
2019-05-25T02:41:28.334Z,48.00
2019-05-25T02:42:28.291Z,56.00
2019-05-25T02:43:28.313Z,64.00
2019-05-25T02:44:28.280Z,72.00
2019-05-25T02:45:28.274Z,80.00
2019-05-25T02:46:28.284Z,88.00
2019-05-25T02:47:28.234Z,96.00
2019-05-25T02:48:28.226Z,108.00
2019-05-25T02:49:28.228Z,116.00
2019-05-25T02:50:28.221Z,132.00
2019-05-25T02:51:28.202Z,140.00
2019-05-25T02:52:28.201Z,152.00
2019-05-25T02:53:28.167Z,168.00
2019-05-25T02:54:28.193Z,180.00
2019-05-25T02:55:34.473Z,196.00
2019-05-25T02:56:29.171Z,208.00
2019-05-25T02:57:28.141Z,224.00
2019-05-25T02:58:28.125Z,236.00
2019-05-25T02:59:28.101Z,252.00
2019-05-25T03:00:28.212Z,268.00
2019-05-25T03:01:28.087Z,284.00
2019-05-25T03:02:28.082Z,304.00
2019-05-25T03:03:28.063Z,324.00
2019-05-25T03:04:28.058Z,344.00
2019-05-25T03:05:28.039Z,364.00
2019-05-25T03:06:28.086Z,384.00
2019-05-25T03:07:28.022Z,404.00
2019-05-25T03:08:28.002Z,428.00
2019-05-25T03:09:28.000Z,452.00
2019-05-25T03:10:27.978Z,476.00
2019-05-25T03:11:27.979Z,504.00
2019-05-25T03:12:27.972Z,532.00
2019-05-25T03:13:27.955Z,564.00
2019-05-25T03:14:27.938Z,592.00
2019-05-25T03:15:27.940Z,624.00
2019-05-25T03:16:27.911Z,652.00
2019-05-25T03:17:27.948Z,684.00
2019-05-25T03:18:27.893Z,716.00
2019-05-25T03:19:27.892Z,744.00
2019-05-25T03:20:27.874Z,768.00
2019-05-25T03:21:27.857Z,800.00
2019-05-25T03:22:27.845Z,832.00
2019-05-25T03:23:27.881Z,856.00
2019-05-25T03:24:27.834Z,888.00
2019-05-25T03:25:27.827Z,924.00
2019-05-25T03:26:27.805Z,968.00
2019-05-25T03:27:27.786Z,1008.00
2019-05-25T03:28:27.797Z,1052.00
2019-05-25T03:29:27.795Z,1096.00
2019-05-25T03:30:27.770Z,1144.00
2019-05-25T03:31:27.754Z,1188.00
2019-05-25T03:32:27.732Z,1240.00
2019-05-25T03:33:27.763Z,1288.00
2019-05-25T03:34:27.714Z,1340.00
2019-05-25T03:35:27.725Z,1384.00
2019-05-25T03:36:27.692Z,1424.00
2019-05-25T03:37:27.679Z,1464.00
2019-05-25T03:38:27.661Z,1504.00
2019-05-25T03:39:27.671Z,1544.00
2019-05-25T03:40:27.649Z,1584.00
2019-05-25T03:41:27.648Z,1616.00
2019-05-25T03:42:27.620Z,1652.00
2019-05-25T03:43:27.612Z,1680.00
2019-05-25T03:44:27.604Z,1716.00
2019-05-25T03:45:27.582Z,1740.00
2019-05-25T03:46:27.578Z,1772.00
2019-05-25T03:47:27.574Z,1800.00
2019-05-25T03:48:27.554Z,1832.00
2019-05-25T03:49:27.558Z,1872.00
2019-05-25T03:50:27.531Z,1916.00
2019-05-25T03:51:27.520Z,1972.00
2019-05-25T03:52:27.511Z,2020.00
2019-05-25T03:53:27.511Z,2060.00
2019-05-25T03:54:27.501Z,2112.00
2019-05-25T03:55:27.496Z,2168.00
2019-05-25T03:56:27.464Z,2232.00
2019-05-25T03:57:27.453Z,2296.00
2019-05-25T03:58:27.439Z,2356.00
2019-05-25T03:59:27.426Z,2408.00
2019-05-25T04:00:27.771Z,2472.00
2019-05-25T04:01:27.411Z,2524.00
2019-05-25T04:02:27.393Z,2588.00
2019-05-25T04:03:27.383Z,2688.00
2019-05-25T04:04:27.379Z,2808.00
2019-05-25T04:05:27.363Z,2940.00
2019-05-25T04:06:27.376Z,3088.00
2019-05-25T04:07:27.338Z,3224.00
2019-05-25T04:08:27.342Z,3340.00
2019-05-25T04:09:27.313Z,3440.00
2019-05-25T04:10:27.305Z,3544.00
2019-05-25T04:11:27.310Z,3676.00
2019-05-25T04:12:27.286Z,3812.00
2019-05-25T04:13:27.309Z,3924.00
2019-05-25T04:14:27.254Z,4052.00
2019-05-25T04:15:27.239Z,4188.00
2019-05-25T04:16:27.227Z,4308.00
2019-05-25T04:17:27.253Z,4416.00
2019-05-25T04:18:27.210Z,4540.00
2019-05-25T04:19:27.198Z,4664.00
2019-05-25T04:20:27.185Z,4788.00
2019-05-25T04:21:27.178Z,4900.00
2019-05-25T04:22:27.169Z,4988.00
2019-05-25T04:23:27.174Z,5076.00
2019-05-25T04:24:27.156Z,5136.00
2019-05-25T04:25:27.136Z,5184.00
2019-05-25T04:26:27.733Z,5240.00
2019-05-25T04:27:27.114Z,5280.00
2019-05-25T04:28:27.096Z,5304.00
2019-05-25T04:29:27.100Z,5304.00
2019-05-25T04:30:27.072Z,5288.00
2019-05-25T04:31:27.062Z,5252.00
2019-05-25T04:32:27.059Z,5212.00
2019-05-25T04:33:27.047Z,5172.00
2019-05-25T04:34:27.271Z,5128.00
2019-05-25T04:35:27.025Z,5076.00
2019-05-25T04:36:27.012Z,5012.00
2019-05-25T04:37:27.013Z,4948.00
2019-05-25T04:38:26.986Z,4880.00
2019-05-25T04:39:26.987Z,4836.00
2019-05-25T04:40:27.007Z,4816.00
2019-05-25T04:41:26.948Z,4808.00
2019-05-25T04:42:26.945Z,4800.00
2019-05-25T04:43:26.935Z,4796.00
2019-05-25T04:44:26.937Z,4844.00
2019-05-25T04:45:26.921Z,4892.00
2019-05-25T04:46:26.929Z,4896.00
2019-05-25T04:47:27.433Z,4860.00
2019-05-25T04:48:26.885Z,4848.00
2019-05-25T04:49:26.859Z,4844.00
2019-05-25T04:50:26.853Z,4784.00
2019-05-25T04:51:26.849Z,4712.00
2019-05-25T04:52:26.854Z,4668.00
2019-05-25T04:53:26.879Z,4652.00
2019-05-25T04:54:26.811Z,4652.00
2019-05-25T04:55:26.807Z,4632.00
2019-05-25T04:56:38.845Z,4596.00
2019-05-25T04:57:27.816Z,4540.00
2019-05-25T04:58:26.761Z,4516.00
2019-05-25T04:59:26.790Z,4484.00
2019-05-25T05:00:26.741Z,4440.00
2019-05-25T05:01:26.724Z,4412.00
2019-05-25T05:02:26.724Z,4368.00
2019-05-25T05:03:27.600Z,4328.00
2019-05-25T05:04:26.709Z,4284.00
2019-05-25T05:05:26.690Z,4256.00
2019-05-25T05:06:26.747Z,4224.00
2019-05-25T05:07:26.663Z,4192.00
2019-05-25T05:08:26.782Z,4156.00
2019-05-25T05:09:26.657Z,4124.00
2019-05-25T05:10:26.650Z,4108.00
2019-05-25T05:11:26.736Z,4096.00
2019-05-25T05:12:26.880Z,4080.00
2019-05-25T05:13:26.653Z,4072.00
2019-05-25T05:14:26.633Z,4072.00
2019-05-25T05:15:26.721Z,4072.00
2019-05-25T05:16:26.635Z,4080.00
2019-05-25T05:17:26.758Z,4124.00
2019-05-25T05:18:26.557Z,4168.00
2019-05-25T05:19:26.533Z,4172.00
2019-05-25T05:20:26.516Z,4164.00
2019-05-25T05:21:26.500Z,4116.00
2019-05-25T05:22:26.570Z,4064.00
2019-05-25T05:23:26.488Z,4052.00
2019-05-25T05:24:26.483Z,4004.00
2019-05-25T05:25:26.467Z,4040.00
2019-05-25T05:26:26.449Z,4092.00
2019-05-25T05:27:26.444Z,4124.00
2019-05-25T05:28:26.798Z,4048.00
2019-05-25T05:29:26.435Z,4020.00
2019-05-25T05:30:26.413Z,4052.00
2019-05-25T05:31:26.392Z,4124.00
2019-05-25T05:32:27.823Z,4228.00
2019-05-25T05:33:26.382Z,4348.00
2019-05-25T05:34:26.408Z,4448.00
2019-05-25T05:35:26.372Z,4496.00
2019-05-25T05:36:26.344Z,4492.00
2019-05-25T05:37:26.320Z,4496.00
2019-05-25T05:38:26.356Z,4464.00
2019-05-25T05:39:26.328Z,4396.00
2019-05-25T05:40:40.401Z,4324.00
2019-05-25T05:41:26.286Z,4280.00
2019-05-25T05:42:26.280Z,4180.00
2019-05-25T05:43:26.269Z,4276.00
2019-05-25T05:44:26.284Z,4268.00
2019-05-25T05:45:26.256Z,4196.00
2019-05-25T05:46:26.254Z,4228.00
2019-05-25T05:47:26.214Z,4272.00
2019-05-25T05:48:26.200Z,4356.00
2019-05-25T05:49:26.186Z,4392.00
2019-05-25T05:50:26.269Z,4360.00
2019-05-25T05:51:26.164Z,4268.00
2019-05-25T05:52:26.159Z,4164.00
2019-05-25T05:53:26.195Z,4396.00
2019-05-25T05:54:26.130Z,4596.00
2019-05-25T05:55:26.120Z,4624.00
2019-05-25T05:56:26.430Z,4724.00
2019-05-25T05:57:26.108Z,4744.00
2019-05-25T05:58:26.121Z,4824.00
2019-05-25T05:59:26.104Z,4964.00
2019-05-25T06:00:26.080Z,5184.00
2019-05-25T06:01:26.049Z,5396.00
2019-05-25T06:02:26.046Z,5480.00
2019-05-25T06:03:26.611Z,5632.00
2019-05-25T06:04:26.038Z,5764.00
2019-05-25T06:05:26.018Z,6192.00
2019-05-25T06:06:26.089Z,6352.00
2019-05-25T06:07:27.546Z,6480.00
2019-05-25T06:08:25.991Z,6884.00
2019-05-25T06:09:25.963Z,6812.00
2019-05-25T06:10:25.959Z,7204.00
2019-05-25T06:11:25.952Z,7304.00
2019-05-25T06:12:25.928Z,7668.00
2019-05-25T06:13:25.943Z,7896.00
2019-05-25T06:14:25.920Z,6372.00
2019-05-25T06:15:25.909Z,11972.00
2019-05-25T06:16:25.893Z,12524.00
2019-05-25T06:17:25.917Z,12156.00
2019-05-25T06:18:25.882Z,12136.00
2019-05-25T06:19:25.888Z,14628.00
2019-05-25T06:20:25.838Z,14168.00
2019-05-25T06:21:25.846Z,12296.00
2019-05-25T06:22:26.049Z,13048.00
2019-05-25T06:23:25.901Z,13840.00
2019-05-25T06:24:25.819Z,15876.00
2019-05-25T06:25:25.805Z,11788.00
2019-05-25T06:26:25.779Z,13788.00
2019-05-25T06:27:27.706Z,11452.00
2019-05-25T06:28:25.762Z,9616.00
2019-05-25T06:29:25.739Z,10400.00
2019-05-25T06:30:25.747Z,9752.00
2019-05-25T06:31:25.719Z,9304.00
2019-05-25T06:32:25.718Z,8640.00
2019-05-25T06:33:25.695Z,8344.00
2019-05-25T06:34:25.685Z,12232.00
2019-05-25T06:35:25.748Z,11048.00
2019-05-25T06:36:25.665Z,12484.00
2019-05-25T06:37:25.648Z,12372.00
2019-05-25T06:38:25.636Z,12640.00
2019-05-25T06:39:25.628Z,17248.00
2019-05-25T06:40:25.628Z,17440.00
2019-05-25T06:41:25.619Z,15148.00
2019-05-25T06:42:25.611Z,19488.00
2019-05-25T06:43:25.585Z,17280.00
2019-05-25T06:44:25.580Z,19744.00
2019-05-25T06:45:25.602Z,16332.00
2019-05-25T06:46:25.559Z,23744.00
2019-05-25T06:47:25.543Z,20544.00
2019-05-25T06:48:25.550Z,22912.00
2019-05-25T06:49:25.530Z,21888.00
2019-05-25T06:50:25.501Z,21600.00
2019-05-25T06:51:25.503Z,23264.00
2019-05-25T06:52:25.480Z,25120.00
2019-05-25T06:53:25.497Z,24672.00
2019-05-25T06:54:25.460Z,19680.00
2019-05-25T06:55:25.445Z,26848.00
2019-05-25T06:56:25.440Z,26880.00
2019-05-25T06:57:25.423Z,28192.00
2019-05-25T06:58:25.438Z,22496.00
2019-05-25T06:59:25.466Z,20192.00
2019-05-25T07:00:25.386Z,17632.00
2019-05-25T07:01:25.390Z,18176.00
2019-05-25T07:02:25.382Z,19232.00
2019-05-25T07:03:25.376Z,19872.00
2019-05-25T07:04:25.351Z,17920.00
2019-05-25T07:05:25.519Z,16328.00
2019-05-25T07:06:25.339Z,16132.00
2019-05-25T07:07:25.328Z,14760.00
2019-05-25T07:08:25.298Z,14512.00
2019-05-25T07:09:25.321Z,15252.00
2019-05-25T07:10:25.318Z,15932.00
2019-05-25T07:11:25.343Z,17728.00
2019-05-25T07:12:25.277Z,19168.00
2019-05-25T07:13:28.380Z,18176.00
2019-05-25T07:14:25.251Z,20832.00
2019-05-25T07:15:25.233Z,16992.00
2019-05-25T07:16:25.235Z,16216.00
2019-05-25T07:17:25.270Z,16480.00
2019-05-25T07:18:25.190Z,15624.00
2019-05-25T07:19:25.261Z,15016.00
2019-05-25T07:20:25.247Z,17344.00
2019-05-25T07:21:25.182Z,19776.00
2019-05-25T07:22:25.162Z,19648.00
2019-05-25T07:23:25.189Z,20480.00
2019-05-25T07:24:25.182Z,20832.00
2019-05-25T07:25:25.171Z,20096.00
2019-05-25T07:26:25.120Z,18944.00
2019-05-25T07:27:25.095Z,19296.00
2019-05-25T07:28:25.105Z,17696.00
2019-05-25T07:29:25.131Z,16544.00
2019-05-25T07:30:25.105Z,16960.00
2019-05-25T07:31:25.211Z,16448.00
2019-05-25T07:32:25.073Z,17312.00
2019-05-25T07:33:25.083Z,18336.00
2019-05-25T07:34:25.025Z,16704.00
2019-05-25T07:35:25.079Z,16640.00
2019-05-25T07:36:25.000Z,17856.00
2019-05-25T07:37:24.985Z,19232.00
2019-05-25T07:38:25.002Z,24672.00
2019-05-25T07:39:24.990Z,21088.00
2019-05-25T07:40:24.987Z,21696.00
2019-05-25T07:41:24.957Z,32608.00
2019-05-25T07:42:24.967Z,22176.00
2019-05-25T07:43:24.935Z,21408.00
2019-05-25T07:44:24.906Z,20864.00
2019-05-25T07:45:24.933Z,27232.00
2019-05-25T07:46:24.912Z,15520.00
2019-05-25T07:47:24.898Z,14680.00
2019-05-25T07:48:24.920Z,17184.00
2019-05-25T07:49:24.884Z,20832.00
2019-05-25T07:50:24.838Z,21664.00
2019-05-25T07:51:24.831Z,18912.00
2019-05-25T07:52:24.819Z,15696.00
2019-05-25T07:53:24.825Z,14500.00
2019-05-25T07:54:24.788Z,14672.00
2019-05-25T07:55:24.811Z,14716.00
2019-05-25T07:56:24.777Z,14424.00
2019-05-25T07:57:28.446Z,13520.00
2019-05-25T07:58:24.766Z,13096.00
2019-05-25T07:59:24.744Z,13376.00
2019-05-25T08:00:24.745Z,14064.00
2019-05-25T08:01:24.716Z,14236.00
2019-05-25T08:02:24.712Z,13500.00
2019-05-25T08:03:24.940Z,15260.00
2019-05-25T08:04:24.679Z,18560.00
2019-05-25T08:05:24.674Z,19008.00
2019-05-25T08:06:24.666Z,19296.00
2019-05-25T08:07:24.661Z,18816.00
2019-05-25T08:08:24.659Z,18240.00
2019-05-25T08:09:24.677Z,17824.00
2019-05-25T08:10:24.618Z,18336.00
2019-05-25T08:11:24.601Z,17760.00
2019-05-25T08:12:24.593Z,15852.00
2019-05-25T08:13:24.673Z,14216.00
2019-05-25T08:14:24.579Z,14752.00
2019-05-25T08:15:24.572Z,16704.00
2019-05-25T08:16:24.557Z,16544.00
2019-05-25T08:17:24.575Z,15292.00
2019-05-25T08:18:24.546Z,14096.00
2019-05-25T08:19:24.524Z,13072.00
2019-05-25T08:20:24.528Z,12712.00
2019-05-25T08:21:24.503Z,13668.00
2019-05-25T08:22:24.484Z,14112.00
2019-05-25T08:23:24.486Z,14232.00
2019-05-25T08:24:24.458Z,13956.00
2019-05-25T08:25:24.445Z,13476.00
2019-05-25T08:26:24.466Z,13372.00
2019-05-25T08:27:24.420Z,13080.00
2019-05-25T08:28:32.842Z,12048.00
2019-05-25T08:29:25.469Z,11316.00
2019-05-25T08:30:24.406Z,10896.00
2019-05-25T08:31:24.375Z,10460.00
2019-05-25T08:32:24.385Z,10228.00
2019-05-25T08:33:24.355Z,10048.00
2019-05-25T08:34:24.342Z,10132.00
2019-05-25T08:35:24.678Z,9844.00
2019-05-25T08:36:24.348Z,9992.00
2019-05-25T08:37:24.318Z,10616.00
2019-05-25T08:38:24.297Z,10236.00
2019-05-25T08:39:24.291Z,9856.00
2019-05-25T08:40:24.290Z,9704.00
2019-05-25T08:41:24.289Z,9512.00
2019-05-25T08:42:24.259Z,9568.00
2019-05-25T08:43:24.245Z,9400.00
2019-05-25T08:44:24.231Z,9716.00
2019-05-25T08:45:26.035Z,9856.00
2019-05-25T08:46:24.228Z,9612.00
2019-05-25T08:47:24.224Z,9552.00
2019-05-25T08:48:24.202Z,9432.00
2019-05-25T08:49:24.172Z,9132.00
2019-05-25T08:50:37.100Z,9172.00
2019-05-25T08:51:25.198Z,9672.00
2019-05-25T08:52:24.167Z,10360.00
2019-05-25T08:53:39.961Z,11000.00
2019-05-25T08:54:25.129Z,10588.00
2019-05-25T08:55:24.137Z,9748.00
2019-05-25T08:56:24.101Z,9168.00
2019-05-25T08:57:24.091Z,9148.00
2019-05-25T08:58:24.096Z,8840.00
2019-05-25T08:59:24.071Z,8520.00
2019-05-25T09:00:24.095Z,8744.00
2019-05-25T09:01:24.036Z,8820.00
2019-05-25T09:02:24.027Z,9304.00
2019-05-25T09:03:24.056Z,10772.00
2019-05-25T09:04:25.724Z,10888.00
2019-05-25T09:05:25.183Z,9876.00
2019-05-25T09:06:23.985Z,10520.00
2019-05-25T09:07:23.978Z,11468.00
2019-05-25T09:08:23.966Z,11124.00
2019-05-25T09:09:23.969Z,10096.00
2019-05-25T09:10:23.946Z,8916.00
2019-05-25T09:11:23.957Z,7980.00
2019-05-25T09:12:23.914Z,7840.00
2019-05-25T09:13:23.911Z,7992.00
2019-05-25T09:14:23.899Z,7904.00
2019-05-25T09:15:23.890Z,8128.00
2019-05-25T09:16:23.887Z,8556.00
2019-05-25T09:17:23.891Z,8504.00
2019-05-25T09:18:23.855Z,8836.00
2019-05-25T09:19:23.842Z,9652.00
2019-05-25T09:20:23.839Z,10428.00
2019-05-25T09:21:23.843Z,10324.00
2019-05-25T09:22:23.889Z,10588.00
2019-05-25T09:23:23.794Z,12228.00
2019-05-25T09:24:23.783Z,14472.00
2019-05-25T09:25:23.785Z,17728.00
2019-05-25T09:26:23.787Z,20192.00
2019-05-25T09:27:23.763Z,21952.00
2019-05-25T09:28:23.768Z,23680.00
2019-05-25T09:29:23.741Z,23136.00
2019-05-25T09:30:23.729Z,21600.00
2019-05-25T09:31:23.712Z,19040.00
2019-05-25T09:32:23.696Z,17152.00
2019-05-25T09:33:23.767Z,15040.00
2019-05-25T09:34:23.702Z,13168.00
2019-05-25T09:35:23.661Z,12804.00
2019-05-25T09:36:23.654Z,13180.00
2019-05-25T09:37:23.648Z,13280.00
2019-05-25T09:38:23.644Z,12756.00
2019-05-25T09:39:23.667Z,11740.00
2019-05-25T09:40:23.600Z,11072.00
2019-05-25T09:41:23.602Z,11044.00
2019-05-25T09:42:23.588Z,10996.00
2019-05-25T09:43:23.575Z,10580.00
2019-05-25T09:44:23.587Z,9760.00
2019-05-25T09:45:23.561Z,9192.00
2019-05-25T09:46:23.537Z,9204.00
2019-05-25T09:47:23.531Z,10028.00
2019-05-25T09:48:23.521Z,10968.00
2019-05-25T09:49:23.554Z,11252.00
2019-05-25T09:50:23.497Z,10996.00
2019-05-25T09:51:23.480Z,11068.00
2019-05-25T09:52:23.478Z,11540.00
2019-05-25T09:53:23.473Z,11620.00
2019-05-25T09:54:23.482Z,11132.00
2019-05-25T09:55:23.467Z,12108.00
2019-05-25T09:56:23.505Z,12932.00
2019-05-25T09:57:23.410Z,12188.00
2019-05-25T09:58:23.404Z,11276.00
2019-05-25T09:59:23.410Z,11492.00
2019-05-25T10:00:23.412Z,13616.00
2019-05-25T10:01:23.371Z,15696.00
2019-05-25T10:02:23.351Z,17888.00
2019-05-25T10:03:23.340Z,21952.00
2019-05-25T10:04:23.335Z,23136.00
2019-05-25T10:05:23.327Z,22176.00
2019-05-25T10:06:23.367Z,23968.00
2019-05-25T10:07:23.321Z,22688.00
2019-05-25T10:08:23.284Z,21440.00
2019-05-25T10:09:23.282Z,20736.00
2019-05-25T10:10:23.281Z,19104.00
2019-05-25T10:11:23.265Z,17792.00
2019-05-25T10:12:23.265Z,18560.00
2019-05-25T10:13:23.546Z,21088.00
2019-05-25T10:14:23.241Z,17440.00
2019-05-25T10:15:23.217Z,16040.00
2019-05-25T10:16:23.239Z,15320.00
2019-05-25T10:17:23.226Z,14980.00
2019-05-25T10:18:23.236Z,15272.00
2019-05-25T10:19:23.164Z,17312.00
2019-05-25T10:20:23.202Z,21824.00
2019-05-25T10:21:23.173Z,27488.00
2019-05-25T10:22:23.143Z,43040.00
2019-05-25T10:23:23.277Z,33664.00
2019-05-25T10:24:23.119Z,39968.00
2019-05-25T10:25:23.107Z,71072.00
2019-05-25T10:26:23.290Z,42592.00
2019-05-25T10:27:23.079Z,30144.00
2019-05-25T10:28:23.086Z,25696.00
2019-05-25T10:29:36.019Z,21056.00
2019-05-25T10:30:24.047Z,17152.00
2019-05-25T10:31:23.043Z,14752.00
2019-05-25T10:32:23.415Z,13868.00
2019-05-25T10:33:23.034Z,13504.00
2019-05-25T10:34:22.999Z,13420.00
2019-05-25T10:35:22.991Z,14248.00
2019-05-25T10:36:23.003Z,16064.00
2019-05-25T10:37:23.006Z,19648.00
2019-05-25T10:38:22.957Z,24896.00
2019-05-25T10:39:22.967Z,30144.00
2019-05-25T10:40:22.960Z,27776.00
2019-05-25T10:41:43.938Z,22016.00
2019-05-25T10:42:22.940Z,21152.00
2019-05-25T10:43:22.938Z,25696.00
2019-05-25T10:44:22.941Z,23744.00
2019-05-25T10:45:22.897Z,19680.00
2019-05-25T10:46:22.867Z,18784.00
2019-05-25T10:47:22.928Z,17568.00
2019-05-25T10:48:22.889Z,14840.00
2019-05-25T10:49:22.840Z,14136.00
2019-05-25T10:50:22.834Z,14380.00
2019-05-25T10:51:22.815Z,14744.00
2019-05-25T10:52:22.809Z,14204.00
2019-05-25T10:53:22.844Z,13348.00
2019-05-25T10:54:22.794Z,13940.00
2019-05-25T10:55:22.791Z,15916.00
2019-05-25T10:56:22.771Z,20000.00
2019-05-25T10:57:22.741Z,23712.00
2019-05-25T10:58:22.735Z,26304.00
2019-05-25T10:59:22.751Z,30816.00
2019-05-25T11:00:22.705Z,27712.00
2019-05-25T11:01:22.705Z,28928.00
2019-05-25T11:02:22.973Z,48960.00
2019-05-25T11:03:22.675Z,40160.00
2019-05-25T11:04:22.661Z,35328.00
2019-05-25T11:05:22.660Z,31264.00
2019-05-25T11:06:22.642Z,28832.00
2019-05-25T11:07:22.639Z,22560.00
2019-05-25T11:08:22.662Z,19872.00
2019-05-25T11:09:22.613Z,19520.00
2019-05-25T11:10:22.600Z,22784.00
2019-05-25T11:11:22.589Z,23552.00
2019-05-25T11:12:25.884Z,21280.00
2019-05-25T11:13:22.568Z,24416.00
2019-05-25T11:14:22.592Z,29504.00
2019-05-25T11:15:22.550Z,33024.00
2019-05-25T11:16:22.533Z,35040.00
2019-05-25T11:17:22.533Z,50400.00
2019-05-25T11:18:22.520Z,46720.00
2019-05-25T11:19:24.373Z,41952.00
2019-05-25T11:20:22.537Z,32864.00
2019-05-25T11:21:22.490Z,32512.00
2019-05-25T11:22:22.468Z,26528.00
2019-05-25T11:23:22.476Z,26528.00
2019-05-25T11:24:22.446Z,26816.00
2019-05-25T11:25:22.497Z,23264.00
2019-05-25T11:26:22.425Z,23200.00
2019-05-25T11:27:22.417Z,25952.00
2019-05-25T11:28:22.407Z,23648.00
2019-05-25T11:29:22.395Z,20608.00
2019-05-25T11:30:22.380Z,21024.00
2019-05-25T11:31:22.490Z,25056.00
2019-05-25T11:32:22.367Z,33632.00
2019-05-25T11:33:22.361Z,53056.00
2019-05-25T11:34:22.401Z,32992.00
2019-05-25T11:35:22.339Z,34976.00
2019-05-25T11:36:22.318Z,40128.00
2019-05-25T11:37:22.300Z,39744.00
2019-05-25T11:38:22.290Z,37056.00
2019-05-25T11:39:22.277Z,35232.00
2019-05-25T11:40:22.285Z,32544.00
2019-05-25T11:41:22.255Z,33376.00
2019-05-25T11:42:22.249Z,41056.00
2019-05-25T11:43:22.314Z,50112.00
2019-05-25T11:44:22.225Z,36448.00
2019-05-25T11:45:22.219Z,50496.00
2019-05-25T11:46:22.204Z,31360.00
2019-05-25T11:47:22.190Z,24672.00
2019-05-25T11:48:22.502Z,21504.00
2019-05-25T11:49:23.080Z,21440.00
2019-05-25T11:50:22.395Z,24064.00
2019-05-25T11:51:22.197Z,25920.00
2019-05-25T11:52:22.145Z,27136.00
2019-05-25T11:53:22.168Z,26016.00
2019-05-25T11:54:22.167Z,23584.00
2019-05-25T11:55:22.116Z,21568.00
2019-05-25T11:56:22.087Z,23392.00
2019-05-25T11:57:22.080Z,22816.00
2019-05-25T11:58:22.062Z,24288.00
2019-05-25T11:59:22.059Z,22976.00
2019-05-25T12:00:25.557Z,22720.00
2019-05-25T12:01:22.089Z,22464.00
2019-05-25T12:02:22.023Z,20288.00
2019-05-25T12:03:22.703Z,19200.00
2019-05-25T12:04:22.007Z,18496.00
2019-05-25T12:05:22.012Z,17440.00
2019-05-25T12:06:21.977Z,15528.00
2019-05-25T12:07:21.974Z,14380.00
2019-05-25T12:08:21.979Z,14816.00
2019-05-25T12:09:21.950Z,16864.00
2019-05-25T12:10:21.976Z,20736.00
2019-05-25T12:11:21.918Z,28000.00
2019-05-25T12:12:21.912Z,31392.00